MDW weather

Chicago Midway International Airport
Chicago, Illinois, United States

Public forecast

Using degrees Fahrenheit for public forecast. Weather courtesy of forecast.io.

METAR (pilot weather report)

Retrieved 2018/10/17 20:53 UTC (20 minutes ago):

KMDW 172053Z 33014G19KT 10SM FEW050 11/M04 A3034 RMK AO2 SLP277 T01061039 53007

TAF (pilot weather forecast)

Retrieved 2018/10/17 18:27 UTC (3 hours ago):

TAF KMDW 171725Z 1718/1824 32013G20KT P6SM FEW040 FM180000 31005KT P6SM FEW250 FM181300 23006KT P6SM SKC